Terminal Aerodrome Forecast
Issued by NWS Wakefield, VA

Home | Current Version | Previous Version | Text Only | Print | Product List | Glossary On
Versions: 1 2 3 4 5 6 7 8 9 10 11 12 13 14 15 16 17 18 19 20 21 22
000
FTUS41 KAKQ 262300
TAFSBY
TAF
KSBY 262338Z 2700/2724 01014G21KT 4SM -RA BR OVC006
     FM270300 36015G25KT 2SM -RASN BR OVC005
     FM270600 35014G22KT 1SM -SN BR OVC005
     FM271200 32013G21KT 3SM -SN BR OVC009
     FM271800 32015G22KT P6SM BKN020 OVC040=

USA.gov is the U.S. government's official web portal to all federal, state and local government web resources and services.